Terminal Aerodrome Forecast
Issued by NWS

Home | Current Version | Previous Version | Text Only | Print | Product List | Glossary On
Versions: 1 2 3 4 5 6 7 8 9 10 11 12 13 14 15 16 17 18 19 20 21 22 23 24 25 26 27
000
FTUS41 KALY 230500
TAFPSF
TAF
KPSF 230527Z 2306/2406 06003KT P6SM BKN035 OVC070
     FM230800 VRB02KT 6SM BR VCSH BKN015 OVC025
     FM231300 04004KT P6SM VCSH BKN025 OVC040
     FM231700 08006KT P6SM BKN045
     FM240000 VRB03KT P6SM SCT040=

USA.gov is the U.S. government's official web portal to all federal, state and local government web resources and services.